Time;durP1;ratioP1;P1;durP2;ratioP2;P2;SDS_P1;SDS_P2;PMS_P1;PMS_P2;Temp;Humidity;BMP_temperature;BMP_pressure;BME280_temperature;BME280_humidity;BME280_pressure;Samples;Min_cycle;Max_cycle;Signal;HPM_P1;HPM_P2
2022/04/02 00:01:26;;;;;;;3.88;1.40;;;3.10;99.90;;;;;;5005455;28;20644;-77
2022/04/02 00:03:52;;;;;;;2.65;1.25;;;3.10;99.90;;;;;;5004814;28;20053;-77
2022/04/02 00:06:18;;;;;;;5.03;1.42;;;3.50;99.90;;;;;;4971253;28;20050;-77
2022/04/02 00:08:44;;;;;;;3.92;1.55;;;3.10;99.90;;;;;;4986266;28;20070;-77
2022/04/02 00:11:10;;;;;;;2.53;1.40;;;3.20;99.90;;;;;;5002371;28;20064;-77
2022/04/02 00:13:36;;;;;;;4.15;1.58;;;3.20;99.90;;;;;;4987569;28;20054;-77
2022/04/02 00:16:02;;;;;;;4.20;1.52;;;4.20;99.90;;;;;;4995332;28;20038;-77
2022/04/02 00:18:29;;;;;;;4.10;1.50;;;3.20;99.90;;;;;;5001113;28;20054;-77
2022/04/02 00:20:55;;;;;;;4.07;1.48;;;3.30;99.90;;;;;;5000670;28;20046;-77
2022/04/02 00:23:39;;;;;;;6.43;1.77;;;4.40;99.90;;;;;;5000656;28;20042;-77
2022/04/02 00:26:07;;;;;;;4.20;1.58;;;4.10;99.90;;;;;;5001672;28;20065;-77
2022/04/02 00:28:35;;;;;;;7.30;2.00;;;4.30;99.90;;;;;;5002401;28;20057;-76
2022/04/02 00:31:01;;;;;;;3.80;1.52;;;3.50;99.90;;;;;;5003730;28;20186;-76
2022/04/02 00:33:27;;;;;;;2.63;1.40;;;3.20;99.90;;;;;;4988304;28;20069;-76
2022/04/02 00:35:53;;;;;;;2.80;1.40;;;3.30;99.90;;;;;;4983658;28;20495;-76
2022/04/02 00:38:19;;;;;;;1.60;1.13;;;3.20;99.90;;;;;;5000348;28;20100;-76
2022/04/02 00:40:45;;;;;;;2.65;1.48;;;3.20;99.90;;;;;;5003070;28;20121;-76
2022/04/02 00:43:31;;;;;;;5.78;1.40;;;3.30;99.90;;;;;;5002504;28;20042;-78
2022/04/02 00:45:58;;;;;;;;;;;3.20;99.90;;;;;;5003075;28;20046;-78
2022/04/02 00:48:24;;;;;;;;;;;3.10;99.90;;;;;;5011613;28;20021;-79
2022/04/02 00:50:52;;;;;;;3.22;1.50;;;3.50;99.90;;;;;;4994291;28;19969;-79
2022/04/02 00:53:20;;;;;;;3.08;1.33;;;4.00;99.90;;;;;;5002779;28;20053;-78
2022/04/02 00:55:46;;;;;;;3.58;2.15;;;3.00;99.90;;;;;;5006010;28;20048;-78
2022/04/02 00:58:12;;;;;;;2.95;1.40;;;2.90;99.90;;;;;;4998750;28;20045;-78
2022/04/02 01:00:40;;;;;;;2.92;1.20;;;2.90;99.90;;;;;;5007836;28;20042;-79
2022/04/02 01:03:07;;;;;;;2.72;1.27;;;4.40;99.90;;;;;;5008287;28;20075;-79
2022/04/02 01:05:37;;;;;;;2.42;1.20;;;2.90;99.90;;;;;;4992108;28;20049;-79
2022/04/02 01:08:06;;;;;;;3.45;1.38;;;3.30;99.90;;;;;;4974292;28;20053;-79
2022/04/02 01:10:38;;;;;;;7.50;1.40;;;2.90;99.90;;;;;;5006772;28;20064;-79
2022/04/02 01:13:05;;;;;;;5.03;1.38;;;2.90;99.90;;;;;;5008519;28;20054;-76
2022/04/02 01:15:31;;;;;;;4.25;1.52;;;2.90;99.90;;;;;;5009091;28;20449;-77
2022/04/02 01:17:57;;;;;;;2.95;1.20;;;3.40;99.90;;;;;;4974896;28;20041;-77
2022/04/02 01:20:27;;;;;;;3.05;1.33;;;2.90;99.90;;;;;;4966437;28;20111;-76
2022/04/02 01:22:53;;;;;;;4.95;1.65;;;3.20;99.90;;;;;;4988844;28;20393;-76
2022/04/02 01:25:19;;;;;;;3.97;1.60;;;2.90;99.90;;;;;;5005127;28;20806;-76
2022/04/02 01:27:46;;;;;;;2.15;1.30;;;2.90;99.90;;;;;;4988670;28;20070;-77
2022/04/02 01:30:13;;;;;;;2.88;1.50;;;3.50;99.90;;;;;;4956275;28;20479;-77
2022/04/02 01:32:39;;;;;;;4.53;1.40;;;2.90;99.90;;;;;;5002699;28;20304;-76
2022/04/02 01:35:07;;;;;;;3.22;1.92;;;4.20;99.90;;;;;;5005678;28;20038;-76
2022/04/02 01:37:32;;;;;;;5.28;1.40;;;2.80;99.90;;;;;;4990165;28;20054;-76
2022/04/02 01:39:58;;;;;;;2.72;1.67;;;2.70;99.90;;;;;;5006062;28;20096;-76
2022/04/02 01:42:27;;;;;;;5.68;1.95;;;2.70;99.90;;;;;;4991795;28;20062;-77
2022/04/02 01:44:52;;;;;;;3.83;1.50;;;2.60;99.90;;;;;;4991268;28;20065;-77
2022/04/02 01:47:19;;;;;;;3.63;1.40;;;2.90;99.90;;;;;;4973613;28;20914;-76
2022/04/02 01:49:45;;;;;;;2.20;1.35;;;2.60;99.90;;;;;;5007361;28;20076;-76
2022/04/02 01:52:17;;;;;;;4.45;1.50;;;2.50;99.90;;;;;;5005542;28;20054;-76
2022/04/02 01:54:43;;;;;;;4.45;1.80;;;2.50;99.90;;;;;;4991536;28;20038;-76
2022/04/02 01:57:09;;;;;;;1.75;1.20;;;2.50;99.90;;;;;;5005654;28;20050;-76
2022/04/02 01:59:35;;;;;;;2.25;1.40;;;3.20;99.90;;;;;;4990580;28;20054;-77
2022/04/02 02:02:01;;;;;;;5.90;1.45;;;2.80;99.90;;;;;;5022581;28;20651;-77
2022/04/02 02:04:28;;;;;;;2.85;1.30;;;2.70;99.90;;;;;;4991622;28;20448;-76
2022/04/02 02:06:54;;;;;;;1.77;1.10;;;3.30;99.90;;;;;;5006365;28;20054;-77
2022/04/02 02:09:20;;;;;;;2.70;1.50;;;3.20;99.90;;;;;;4989625;28;20042;-76
2022/04/02 02:11:46;;;;;;;2.95;1.30;;;2.80;99.90;;;;;;4985606;28;20046;-76
2022/04/02 02:14:12;;;;;;;2.95;1.23;;;2.00;99.90;;;;;;5023078;28;20054;-76
2022/04/02 02:16:37;;;;;;;3.78;1.38;;;3.80;99.90;;;;;;5007891;28;20834;-76
2022/04/02 02:19:03;;;;;;;3.38;1.30;;;3.80;99.90;;;;;;4989070;28;20102;-76
2022/04/02 02:21:29;;;;;;;3.63;1.10;;;3.60;99.90;;;;;;5004890;28;20053;-76
2022/04/02 02:23:56;;;;;;;2.08;1.25;;;2.50;99.90;;;;;;4974471;28;20084;-76
2022/04/02 02:26:23;;;;;;;2.22;1.13;;;2.50;99.90;;;;;;5005761;28;20073;-76
2022/04/02 02:28:48;;;;;;;3.97;1.50;;;2.50;99.90;;;;;;4981879;28;20045;-76
2022/04/02 02:31:15;;;;;;;2.70;1.38;;;2.50;99.90;;;;;;5005912;28;20160;-76
2022/04/02 02:36:25;;;;;;;1.67;1.08;;;3.10;99.90;;;;;;5006243;28;20050;-76
2022/04/02 02:38:52;;;;;;;2.83;1.40;;;3.20;99.90;;;;;;4991824;28;20068;-76
2022/04/02 02:41:18;;;;;;;4.05;1.52;;;2.30;99.90;;;;;;4972819;28;20045;-76
2022/04/02 02:43:44;;;;;;;3.78;0.98;;;2.30;99.90;;;;;;5007971;28;20049;-76
2022/04/02 02:46:14;;;;;;;3.33;1.30;;;2.30;99.90;;;;;;5023582;28;20402;-76
2022/04/02 02:48:40;;;;;;;3.10;1.02;;;2.70;99.90;;;;;;4989643;28;20053;-76
2022/04/02 02:51:06;;;;;;;4.80;1.52;;;2.20;99.90;;;;;;5007087;28;20077;-76
2022/04/02 02:53:31;;;;;;;1.95;1.00;;;2.90;99.90;;;;;;5006924;28;20589;-76
2022/04/02 02:55:57;;;;;;;2.17;1.15;;;2.50;99.90;;;;;;4999545;28;20048;-76
2022/04/02 02:58:23;;;;;;;3.03;1.02;;;2.10;99.90;;;;;;5006686;28;20137;-76
2022/04/02 03:00:49;;;;;;;3.35;1.25;;;2.10;99.90;;;;;;5007884;28;21262;-76
2022/04/02 03:03:14;;;;;;;4.07;1.73;;;2.10;99.90;;;;;;4990136;28;20065;-76
2022/04/02 03:05:40;;;;;;;4.55;1.20;;;2.10;99.90;;;;;;4971294;28;20052;-77
2022/04/02 03:08:06;;;;;;;3.13;1.25;;;2.40;99.90;;;;;;4989071;28;20054;-76
2022/04/02 03:10:32;;;;;;;4.63;1.30;;;2.00;99.90;;;;;;5006119;28;20057;-76
2022/04/02 03:12:59;;;;;;;5.43;1.23;;;2.00;99.90;;;;;;4989577;28;20057;-76
2022/04/02 03:15:25;;;;;;;2.50;1.10;;;2.00;99.90;;;;;;4972099;28;20086;-76
2022/04/02 03:17:55;;;;;;;3.15;1.00;;;2.00;99.90;;;;;;4986508;28;20124;-76
2022/04/02 03:20:22;;;;;;;3.40;1.17;;;2.00;99.90;;;;;;5006657;28;20766;-76
2022/04/02 03:22:49;;;;;;;2.38;1.10;;;3.20;99.90;;;;;;4997737;28;20458;-76
2022/04/02 03:25:17;;;;;;;4.80;1.20;;;2.90;99.90;;;;;;4982270;28;20042;-76
2022/04/02 03:27:44;;;;;;;5.40;1.40;;;2.50;99.90;;;;;;5003223;28;20444;-76
2022/04/02 03:30:11;;;;;;;4.57;1.30;;;2.10;99.90;;;;;;5001768;28;20125;-77
2022/04/02 03:32:38;;;;;;;2.80;1.33;;;2.20;99.90;;;;;;5006909;28;20057;-76
2022/04/02 03:35:05;;;;;;;2.20;1.10;;;2.20;99.90;;;;;;4989410;28;20092;-76
2022/04/02 03:37:32;;;;;;;2.40;1.20;;;2.20;99.90;;;;;;5006303;28;20077;-76
2022/04/02 03:39:58;;;;;;;2.70;1.30;;;2.20;99.90;;;;;;4986909;28;20073;-77
2022/04/02 03:42:25;;;;;;;3.05;1.20;;;3.20;99.90;;;;;;5006577;28;20073;-76
2022/04/02 03:44:51;;;;;;;5.45;1.30;;;2.10;99.90;;;;;;4991792;28;20567;-77
2022/04/02 03:47:22;;;;;;;3.95;1.10;;;2.10;99.90;;;;;;5006746;28;20128;-77
2022/04/02 03:49:49;;;;;;;2.97;1.35;;;2.00;99.90;;;;;;5006420;28;20491;-77
2022/04/02 03:52:15;;;;;;;2.72;1.10;;;2.00;99.90;;;;;;5005324;28;20073;-77
2022/04/02 03:54:42;;;;;;;2.47;1.17;;;3.20;99.90;;;;;;4989480;28;20169;-77
2022/04/02 03:57:09;;;;;;;4.15;1.20;;;1.90;99.90;;;;;;5005517;28;20049;-77
2022/04/02 03:59:36;;;;;;;3.17;1.15;;;1.90;99.90;;;;;;4989389;28;20046;-77
2022/04/02 04:02:04;;;;;;;2.97;1.10;;;1.80;99.90;;;;;;4989864;28;20050;-77
2022/04/02 04:04:31;;;;;;;1.98;1.20;;;1.80;99.90;;;;;;5006077;28;20054;-77
2022/04/02 04:06:57;;;;;;;3.80;1.10;;;1.70;99.90;;;;;;5006601;28;20108;-77
2022/04/02 04:09:23;;;;;;;4.22;1.20;;;0.70;99.90;;;;;;5004460;28;20054;-77
2022/04/02 04:11:49;;;;;;;2.20;1.25;;;1.60;99.90;;;;;;4990469;28;20030;-77
2022/04/02 04:14:16;;;;;;;8.50;1.25;;;1.60;99.90;;;;;;4956883;28;20104;-77
2022/04/02 04:16:42;;;;;;;3.78;1.50;;;1.50;99.90;;;;;;4990399;28;20550;-76
2022/04/02 04:19:08;;;;;;;3.03;1.05;;;1.70;99.90;;;;;;4990099;28;20057;-77
2022/04/02 04:21:36;;;;;;;2.92;1.10;;;1.70;99.90;;;;;;4990532;28;20104;-77
2022/04/02 04:24:04;;;;;;;4.88;1.40;;;2.20;99.90;;;;;;5005933;28;20081;-77
2022/04/02 04:26:30;;;;;;;3.10;1.40;;;1.40;99.90;;;;;;4986139;28;20052;-77
2022/04/02 04:28:56;;;;;;;2.97;1.13;;;1.60;99.90;;;;;;4989457;28;20124;-77
2022/04/02 04:31:22;;;;;;;2.38;1.20;;;1.40;99.90;;;;;;4992039;28;20053;-77
2022/04/02 04:33:48;;;;;;;4.03;1.10;;;1.40;99.90;;;;;;5000499;28;20049;-77
2022/04/02 04:36:15;;;;;;;2.35;1.20;;;2.80;99.90;;;;;;4991816;28;20052;-77
2022/04/02 04:38:42;;;;;;;2.25;1.08;;;2.80;99.90;;;;;;4991388;28;20052;-77
2022/04/02 04:41:07;;;;;;;2.17;1.02;;;1.40;99.90;;;;;;5008015;28;20046;-77
2022/04/02 04:43:34;;;;;;;4.50;1.30;;;1.70;99.90;;;;;;5006629;28;20069;-77
2022/04/02 04:46:04;;;;;;;2.65;1.05;;;2.60;99.90;;;;;;5021291;28;20042;-77
2022/04/02 04:48:30;;;;;;;4.03;1.40;;;1.50;99.90;;;;;;5005143;28;20147;-77
2022/04/02 04:50:56;;;;;;;5.57;1.23;;;1.50;99.90;;;;;;5008568;28;20490;-77
2022/04/02 04:53:22;;;;;;;4.90;1.27;;;1.50;99.90;;;;;;5007588;28;20052;-77
2022/04/02 04:55:48;;;;;;;3.83;1.30;;;2.70;99.90;;;;;;5008668;28;20034;-77
2022/04/02 04:58:14;;;;;;;5.30;1.48;;;2.90;99.90;;;;;;4971817;28;20117;-77
2022/04/02 05:00:43;;;;;;;3.78;1.30;;;2.70;99.90;;;;;;4961433;28;20454;-77
2022/04/02 05:03:09;;;;;;;4.20;1.40;;;1.60;99.90;;;;;;4976924;28;20149;-77
2022/04/02 05:05:35;;;;;;;2.03;1.38;;;1.60;99.90;;;;;;5005534;28;20125;-77
2022/04/02 05:08:01;;;;;;;2.80;1.50;;;1.70;99.90;;;;;;5007589;28;20053;-77
2022/04/02 05:10:30;;;;;;;2.13;1.23;;;2.80;99.90;;;;;;5000056;28;20057;-77
2022/04/02 05:12:56;;;;;;;2.67;1.20;;;1.90;99.90;;;;;;4992889;28;20394;-77
2022/04/02 05:15:21;;;;;;;2.13;1.20;;;1.80;99.90;;;;;;4989733;28;20132;-77
2022/04/02 05:17:47;;;;;;;4.95;1.45;;;1.80;99.90;;;;;;4982305;28;20184;-77
2022/04/02 05:20:17;;;;;;;5.10;1.23;;;2.60;99.90;;;;;;4969451;28;20053;-78
2022/04/02 05:22:44;;;;;;;2.00;1.30;;;3.10;99.90;;;;;;4992226;28;20053;-77
2022/04/02 05:25:10;;;;;;;4.45;1.25;;;2.20;99.90;;;;;;4985498;28;20530;-77
2022/04/02 05:27:37;;;;;;;3.47;1.30;;;1.80;99.90;;;;;;5007651;28;20491;-77
2022/04/02 05:30:04;;;;;;;4.53;1.52;;;2.80;99.90;;;;;;5008015;28;20065;-77
2022/04/02 05:32:30;;;;;;;6.20;1.70;;;1.70;99.90;;;;;;5008461;28;20057;-76
2022/04/02 05:34:56;;;;;;;2.03;1.20;;;1.70;99.90;;;;;;5009446;28;20085;-76
2022/04/02 05:37:23;;;;;;;2.20;1.30;;;1.80;99.90;;;;;;4993620;28;20568;-76
2022/04/02 05:39:49;;;;;;;3.80;1.40;;;2.20;99.90;;;;;;4992488;28;20049;-77
2022/04/02 05:42:15;;;;;;;2.28;1.38;;;1.70;99.90;;;;;;4992152;28;20064;-77
2022/04/02 05:44:41;;;;;;;2.75;1.40;;;2.40;99.90;;;;;;5007724;28;20041;-77
2022/04/02 05:47:07;;;;;;;4.53;1.33;;;1.60;99.90;;;;;;5008885;28;20515;-77
2022/04/02 05:49:33;;;;;;;2.72;1.50;;;2.30;99.90;;;;;;4975945;28;20112;-77
2022/04/02 05:51:59;;;;;;;2.38;1.40;;;1.60;99.90;;;;;;4992400;28;20050;-77
2022/04/02 05:54:25;;;;;;;2.38;1.35;;;2.60;99.90;;;;;;4999998;28;20046;-77
2022/04/02 05:56:55;;;;;;;2.50;1.40;;;2.60;99.90;;;;;;5008837;28;20049;-77
2022/04/02 05:59:21;;;;;;;4.43;1.98;;;2.80;99.90;;;;;;5008036;28;20103;-77
2022/04/02 06:01:48;;;;;;;3.47;1.33;;;2.10;99.90;;;;;;4993354;28;20057;-77
2022/04/02 06:04:14;;;;;;;3.55;2.00;;;1.60;99.90;;;;;;4990981;28;20518;-79
2022/04/02 06:06:40;;;;;;;7.88;5.53;;;1.70;99.90;;;;;;5008093;28;20057;-77
2022/04/02 06:09:06;;;;;;;3.42;2.20;;;3.00;99.90;;;;;;5004043;28;20096;-80
2022/04/02 06:11:32;;;;;;;4.72;2.75;;;1.80;99.90;;;;;;4975306;28;20053;-81
2022/04/02 06:13:58;;;;;;;6.35;2.78;;;2.80;99.90;;;;;;4974777;28;20058;-80
2022/04/02 06:16:25;;;;;;;5.72;1.80;;;1.90;99.90;;;;;;4967925;28;20054;-79
2022/04/02 06:18:52;;;;;;;6.18;2.58;;;3.20;99.90;;;;;;4990405;28;20038;-81
2022/04/02 06:21:18;;;;;;;3.42;1.90;;;2.10;99.90;;;;;;4992082;28;20078;-79
2022/04/02 06:23:44;;;;;;;2.40;1.70;;;2.20;99.90;;;;;;4991349;28;20131;-79
2022/04/02 06:26:10;;;;;;;4.30;1.95;;;2.50;99.90;;;;;;5005546;28;20053;-80
2022/04/02 06:28:37;;;;;;;3.28;1.33;;;2.30;99.90;;;;;;4990225;28;20155;-80
2022/04/02 06:31:04;;;;;;;2.95;2.05;;;2.40;99.90;;;;;;4990987;28;20058;-80
2022/04/02 06:33:32;;;;;;;5.35;2.00;;;3.00;99.90;;;;;;4999740;28;20107;-80
2022/04/02 06:35:59;;;;;;;3.72;1.80;;;2.40;99.90;;;;;;4959713;28;20569;-80
2022/04/02 06:38:25;;;;;;;2.30;1.45;;;3.80;99.90;;;;;;5005307;28;20038;-79
2022/04/02 06:40:51;;;;;;;2.55;1.60;;;2.40;99.90;;;;;;4991363;28;20053;-79
2022/04/02 06:43:17;;;;;;;3.70;1.60;;;3.80;99.90;;;;;;4973116;28;20484;-76
2022/04/02 06:45:42;;;;;;;4.63;1.50;;;2.40;99.90;;;;;;4975929;28;20042;-79
2022/04/02 06:48:08;;;;;;;3.20;1.80;;;2.70;99.90;;;;;;5007310;28;20157;-79
2022/04/02 06:50:34;;;;;;;5.18;1.70;;;2.80;99.90;;;;;;4998353;28;20081;-79
2022/04/02 06:53:00;;;;;;;4.43;1.88;;;3.40;99.90;;;;;;4990650;28;20080;-80
2022/04/02 06:55:26;;;;;;;7.57;2.85;;;2.40;99.90;;;;;;4973314;28;20042;-75
2022/04/02 06:57:56;;;;;;;13.23;4.68;;;2.40;99.90;;;;;;4991160;28;20050;-77
2022/04/02 07:00:22;;;;;;;14.98;5.25;;;2.50;99.90;;;;;;4986051;28;20582;-76
2022/04/02 07:02:48;;;;;;;15.10;4.97;;;3.00;99.90;;;;;;4990104;28;20156;-78
2022/04/02 07:05:15;;;;;;;10.32;3.97;;;3.00;99.90;;;;;;5002293;28;20128;-83
2022/04/02 07:07:41;;;;;;;12.70;4.78;;;3.50;99.90;;;;;;4967966;28;20056;-78
2022/04/02 07:10:08;;;;;;;10.40;4.07;;;2.70;99.90;;;;;;5006339;28;20136;-80
2022/04/02 07:12:34;;;;;;;10.15;3.58;;;2.80;99.90;;;;;;5006649;28;20041;-79
2022/04/02 07:15:01;;;;;;;4.35;2.13;;;2.90;99.90;;;;;;4990824;28;20133;-77
2022/04/02 07:17:27;;;;;;;5.55;1.90;;;3.10;99.90;;;;;;4989490;28;20046;-77
2022/04/02 07:19:59;;;;;;;2.28;1.48;;;3.20;99.90;;;;;;4973246;28;20054;-80
2022/04/02 07:22:25;;;;;;;3.60;1.65;;;3.40;99.90;;;;;;4984563;28;20058;-80
2022/04/02 07:24:52;;;;;;;4.57;1.38;;;3.70;99.90;;;;;;4989933;28;20042;-77
2022/04/02 07:27:22;;;;;;;4.88;1.50;;;3.70;99.90;;;;;;4989428;28;20045;-81
2022/04/02 07:29:51;;;;;;;3.55;1.50;;;4.70;99.90;;;;;;5003805;28;20084;-77
2022/04/02 07:32:17;;;;;;;2.40;1.40;;;4.50;99.90;;;;;;5004934;28;20112;-77
2022/04/02 07:34:43;;;;;;;2.42;1.10;;;4.40;99.90;;;;;;5022535;28;20146;-77
2022/04/02 07:37:20;;;;;;;2.50;1.50;;;5.40;99.90;;;;;;5004755;28;20140;-77
2022/04/02 07:39:58;;;;;;;4.50;1.17;;;4.90;99.90;;;;;;4989390;28;20058;-77
2022/04/02 07:42:33;;;;;;;2.00;1.17;;;5.10;99.90;;;;;;5002627;28;20121;-80
2022/04/02 07:45:11;;;;;;;3.80;1.20;;;5.30;99.90;;;;;;5005279;28;20050;-76
2022/04/02 07:47:39;;;;;;;2.50;1.10;;;5.50;99.90;;;;;;4988695;28;20049;-76
2022/04/02 07:50:06;;;;;;;4.30;1.30;;;5.70;99.90;;;;;;5004936;28;20045;-76
2022/04/02 07:52:33;;;;;;;4.10;1.00;;;5.90;99.90;;;;;;5005436;28;20068;-83
2022/04/02 07:55:01;;;;;;;2.75;1.40;;;6.10;99.90;;;;;;5003899;28;20069;-81
2022/04/02 07:57:33;;;;;;;2.00;1.20;;;6.40;99.90;;;;;;5006747;28;20054;-80
2022/04/02 08:00:03;;;;;;;3.33;1.10;;;6.60;99.90;;;;;;4990036;28;20056;-78
2022/04/02 08:02:37;;;;;;;3.47;1.60;;;6.70;99.90;;;;;;5006077;28;20064;-76
2022/04/02 08:05:05;;;;;;;2.22;1.17;;;7.10;99.90;;;;;;5005364;28;20077;-76
2022/04/02 08:07:33;;;;;;;3.17;1.10;;;7.10;99.90;;;;;;4992687;28;20053;-76
2022/04/02 08:10:01;;;;;;;2.42;1.40;;;7.70;99.90;;;;;;4998697;28;20117;-76
2022/04/02 08:12:28;;;;;;;4.60;1.30;;;7.60;99.90;;;;;;5010255;28;20380;-76
2022/04/02 08:14:54;;;;;;;3.00;1.40;;;7.80;99.90;;;;;;5009011;28;20499;-76
2022/04/02 08:17:21;;;;;;;2.92;1.15;;;7.90;99.90;;;;;;4993708;28;20046;-76
2022/04/02 08:19:50;;;;;;;5.30;1.40;;;8.10;99.90;;;;;;4984249;28;20072;-76
2022/04/02 08:22:18;;;;;;;3.88;1.40;;;8.40;99.90;;;;;;5007859;28;20056;-76
2022/04/02 08:24:45;;;;;;;3.58;1.60;;;8.50;99.90;;;;;;4984851;28;20041;-76
2022/04/02 08:27:32;;;;;;;4.18;2.00;;;8.60;99.10;;;;;;4985291;28;20073;-76
2022/04/02 08:30:03;;;;;;;4.60;1.80;;;7.80;97.00;;;;;;4993762;28;20493;-76
2022/04/02 08:32:47;;;;;;;3.83;1.10;;;9.00;98.50;;;;;;4993199;28;20049;-76
2022/04/02 08:35:17;;;;;;;1.85;1.00;;;9.00;98.00;;;;;;4993541;28;20057;-76
2022/04/02 08:38:14;;;;;;;3.03;1.27;;;8.80;97.70;;;;;;5008347;28;20041;-77
2022/04/02 08:41:09;;;;;;;3.85;1.30;;;8.40;95.40;;;;;;5021482;28;20045;-76
2022/04/02 08:44:05;;;;;;;4.28;1.10;;;8.20;95.90;;;;;;4991928;28;20050;-76
2022/04/02 08:46:36;;;;;;;5.43;2.03;;;8.00;96.50;;;;;;5008213;28;20144;-76
2022/04/02 08:49:18;;;;;;;3.65;1.20;;;7.80;97.60;;;;;;4993915;28;20041;-76
2022/04/02 08:51:46;;;;;;;2.67;1.45;;;7.40;97.80;;;;;;4992156;28;20050;-76
2022/04/02 08:54:46;;;;;;;2.88;1.40;;;7.40;98.60;;;;;;4992715;28;20054;-80
2022/04/02 08:57:32;;;;;;;2.53;1.00;;;7.60;96.20;;;;;;5002498;28;20042;-76
2022/04/02 09:00:11;;;;;;;3.08;1.00;;;8.10;96.30;;;;;;4991024;28;20718;-76
2022/04/02 09:02:58;;;;;;;1.98;0.95;;;8.20;95.10;;;;;;5006845;28;20364;-79
2022/04/02 09:05:45;;;;;;;2.45;0.88;;;8.40;95.40;;;;;;4992053;28;20077;-78
2022/04/02 09:08:23;;;;;;;2.42;1.15;;;8.70;93.60;;;;;;5007684;28;20052;-79
2022/04/02 09:10:55;;;;;;;2.25;0.82;;;8.70;94.90;;;;;;4992418;28;20045;-78
2022/04/02 09:13:32;;;;;;;2.25;1.00;;;9.00;94.50;;;;;;4990440;28;20065;-79
2022/04/02 09:15:58;;;;;;;3.35;1.00;;;9.40;92.50;;;;;;4987708;28;20117;-78
2022/04/02 09:18:37;;;;;;;2.50;1.10;;;9.60;93.00;;;;;;4990579;28;20042;-79
2022/04/02 09:21:32;;;;;;;1.90;0.90;;;9.90;91.90;;;;;;5003226;28;20049;-79
2022/04/02 09:24:07;;;;;;;2.08;1.30;;;10.10;88.00;;;;;;5005167;28;20054;-79
2022/04/02 09:26:39;;;;;;;5.38;2.00;;;10.40;90.00;;;;;;4985419;28;20053;-78
2022/04/02 09:29:08;;;;;;;5.95;1.95;;;10.60;88.90;;;;;;5003441;28;20056;-78
2022/04/02 09:31:49;;;;;;;6.97;2.20;;;10.60;90.10;;;;;;4990683;28;20088;-78
2022/04/02 09:34:34;;;;;;;5.85;2.63;;;10.70;89.20;;;;;;4991490;28;20734;-78
2022/04/02 09:37:08;;;;;;;3.63;2.00;;;10.60;83.60;;;;;;4991448;28;20048;-78
2022/04/02 09:39:57;;;;;;;3.65;1.73;;;10.80;84.90;;;;;;4988745;28;20463;-79
2022/04/02 09:42:42;;;;;;;7.80;3.45;;;10.90;83.30;;;;;;5005340;28;20056;-78
2022/04/02 09:45:21;;;;;;;2.10;1.50;;;10.80;81.40;;;;;;5023930;28;20507;-78
2022/04/02 09:48:24;;;;;;;1.58;0.95;;;10.50;81.50;;;;;;4991960;28;20050;-79
2022/04/02 09:50:55;;;;;;;2.88;1.02;;;10.40;82.70;;;;;;5005227;28;20483;-78
2022/04/02 09:53:26;;;;;;;3.25;1.00;;;10.70;85.20;;;;;;4989502;28;20499;-79
2022/04/02 09:56:10;;;;;;;2.95;1.10;;;10.60;85.10;;;;;;4984834;28;20496;-78
2022/04/02 09:59:27;;;;;;;3.22;0.93;;;11.00;82.30;;;;;;5006019;28;20053;-78
2022/04/02 10:02:06;;;;;;;5.18;1.08;;;11.30;77.10;;;;;;4897036;29;20063;-78
2022/04/02 10:04:53;;;;;;;2.65;0.90;;;11.50;78.60;;;;;;4912532;29;20086;-79
2022/04/02 10:07:19;;;;;;;4.40;1.10;;;11.80;77.40;;;;;;4982906;28;20116;-79
2022/04/02 10:09:49;;;;;;;2.40;1.05;;;11.70;79.90;;;;;;4989276;28;20057;-78
2022/04/02 10:12:17;;;;;;;2.35;1.02;;;11.40;78.20;;;;;;4991987;28;20384;-78
2022/04/02 10:14:44;;;;;;;3.33;0.82;;;10.90;77.50;;;;;;5023321;28;20250;-79
2022/04/02 10:17:13;;;;;;;1.55;0.80;;;11.00;77.80;;;;;;4991828;28;20133;-78
2022/04/02 10:19:39;;;;;;;2.33;0.90;;;11.20;77.40;;;;;;4988478;28;20046;-78
2022/04/02 10:22:10;;;;;;;1.60;0.80;;;11.60;76.40;;;;;;4990807;28;20549;-79
2022/04/02 10:24:47;;;;;;;1.92;1.00;;;11.90;74.20;;;;;;5007393;28;20049;-79
2022/04/02 10:27:35;;;;;;;2.50;0.90;;;12.20;72.00;;;;;;4991827;28;20038;-78
2022/04/02 10:30:01;;;;;;;3.10;0.95;;;12.40;71.90;;;;;;5006264;28;20053;-78
2022/04/02 10:32:38;;;;;;;3.67;0.95;;;12.00;71.10;;;;;;4990193;28;20053;-78
2022/04/02 10:35:10;;;;;;;2.75;1.00;;;12.20;72.10;;;;;;5007048;28;20037;-78
2022/04/02 10:38:04;;;;;;;2.42;0.90;;;12.30;70.90;;;;;;4975321;28;20133;-76
2022/04/02 10:40:32;;;;;;;2.05;0.95;;;12.60;68.30;;;;;;5006725;28;20053;-76
2022/04/02 10:43:06;;;;;;;1.58;0.85;;;13.00;70.00;;;;;;4991982;28;20050;-76
2022/04/02 10:45:36;;;;;;;2.97;0.90;;;13.30;68.70;;;;;;4991183;28;20100;-77
2022/04/02 10:48:11;;;;;;;1.55;0.80;;;13.70;68.10;;;;;;4990139;28;20058;-77
2022/04/02 10:50:39;;;;;;;1.73;0.80;;;14.00;66.10;;;;;;5006831;28;20045;-76
2022/04/02 10:53:08;;;;;;;2.75;0.77;;;13.90;66.30;;;;;;5007773;28;20145;-76
2022/04/02 10:55:41;;;;;;;2.83;0.90;;;14.10;65.40;;;;;;4988265;28;20054;-77
2022/04/02 10:58:11;;;;;;;2.28;0.70;;;14.20;64.10;;;;;;4991163;28;20368;-76
2022/04/02 11:00:43;;;;;;;2.80;1.08;;;14.40;64.20;;;;;;4989605;28;20046;-76
2022/04/02 11:03:31;;;;;;;1.77;1.00;;;14.50;63.90;;;;;;4989683;28;20065;-76
2022/04/02 11:05:57;;;;;;;2.75;0.85;;;14.90;61.60;;;;;;4988936;28;20372;-77
2022/04/02 11:08:29;;;;;;;1.52;0.88;;;15.00;62.10;;;;;;4988273;28;20061;-76
2022/04/02 11:10:57;;;;;;;0.95;0.60;;;14.80;61.10;;;;;;5000723;28;20121;-77
2022/04/02 11:13:32;;;;;;;2.60;0.80;;;14.60;61.90;;;;;;4988978;28;20070;-80
2022/04/02 11:15:58;;;;;;;1.92;0.85;;;14.90;61.00;;;;;;4987948;28;20443;-77
2022/04/02 11:18:28;;;;;;;2.03;0.77;;;15.20;62.30;;;;;;4977703;28;20450;-78
2022/04/02 11:21:03;;;;;;;1.95;0.70;;;15.40;60.40;;;;;;5004119;28;20046;-78
2022/04/02 11:23:46;;;;;;;1.27;0.70;;;15.40;58.90;;;;;;5001328;28;20088;-77
2022/04/02 11:26:18;;;;;;;1.55;0.70;;;15.60;55.90;;;;;;5002614;28;20073;-77
2022/04/02 11:28:44;;;;;;;1.63;0.70;;;15.30;58.80;;;;;;4987720;28;20050;-77
2022/04/02 11:31:13;;;;;;;1.13;0.80;;;15.30;57.40;;;;;;4989544;28;20058;-77
2022/04/02 11:33:52;;;;;;;2.50;0.95;;;15.50;57.80;;;;;;4988933;28;20456;-77
2022/04/02 11:36:23;;;;;;;3.58;0.80;;;15.70;55.40;;;;;;5002428;28;20042;-77
2022/04/02 11:39:01;;;;;;;1.60;0.85;;;15.70;56.50;;;;;;5001147;28;20057;-77
2022/04/02 11:41:37;;;;;;;4.72;0.90;;;15.80;54.80;;;;;;4984333;28;20136;-80
2022/04/02 11:44:14;;;;;;;1.63;0.93;;;16.00;54.50;;;;;;5002073;28;20056;-77
2022/04/02 11:46:49;;;;;;;3.28;0.90;;;16.00;55.00;;;;;;4999940;28;20073;-77
2022/04/02 11:49:34;;;;;;;1.20;0.75;;;15.70;54.50;;;;;;4988190;28;20050;-76
2022/04/02 11:52:18;;;;;;;4.28;1.02;;;15.80;53.90;;;;;;5021849;28;20056;-77
2022/04/02 11:54:50;;;;;;;4.40;1.05;;;15.80;53.50;;;;;;5003340;28;20045;-77
2022/04/02 11:57:17;;;;;;;1.83;0.80;;;15.90;54.80;;;;;;4987980;28;20081;-77
2022/04/02 11:59:51;;;;;;;1.95;0.70;;;15.70;55.10;;;;;;5002121;28;20129;-77
2022/04/02 12:02:37;;;;;;;2.85;0.80;;;15.60;55.10;;;;;;5003088;28;20392;-77
2022/04/02 12:05:06;;;;;;;2.50;0.70;;;15.80;53.80;;;;;;5023685;28;20486;-77
2022/04/02 12:07:51;;;;;;;2.03;0.85;;;16.00;55.40;;;;;;4988650;28;20046;-78
2022/04/02 12:10:21;;;;;;;2.10;0.80;;;15.50;52.60;;;;;;4987965;28;20472;-77
2022/04/02 12:12:51;;;;;;;2.28;0.90;;;15.30;55.00;;;;;;4988521;28;20053;-77
2022/04/02 12:15:18;;;;;;;1.73;0.80;;;15.40;55.00;;;;;;4989328;28;20128;-77
2022/04/02 12:17:48;;;;;;;2.03;0.90;;;15.10;54.60;;;;;;5001875;28;20042;-80
2022/04/02 12:20:35;;;;;;;2.53;0.80;;;14.80;55.30;;;;;;5018019;28;20054;-77
2022/04/02 12:23:12;;;;;;;2.42;0.90;;;14.80;54.60;;;;;;4984275;28;20392;-77
2022/04/02 12:25:54;;;;;;;2.28;1.13;;;15.20;54.80;;;;;;5001654;28;20057;-77
2022/04/02 12:28:21;;;;;;;1.50;0.80;;;14.70;55.30;;;;;;4973320;28;20072;-77
2022/04/02 12:30:52;;;;;;;1.95;0.70;;;14.40;55.20;;;;;;5001837;28;20080;-77
2022/04/02 12:33:19;;;;;;;2.15;0.90;;;14.40;54.50;;;;;;5001337;28;20065;-77
2022/04/02 12:35:59;;;;;;;3.53;0.88;;;14.60;55.10;;;;;;5004707;28;20038;-77
2022/04/02 12:38:29;;;;;;;2.65;0.93;;;14.80;54.90;;;;;;5002980;28;20100;-77
2022/04/02 12:40:57;;;;;;;1.77;1.00;;;15.20;55.00;;;;;;4988753;28;20054;-77
2022/04/02 12:43:41;;;;;;;2.10;0.70;;;15.00;54.60;;;;;;5002471;28;20054;-77
2022/04/02 12:46:25;;;;;;;1.77;0.70;;;15.00;53.40;;;;;;4985442;28;20085;-78
2022/04/02 12:48:51;;;;;;;1.30;0.75;;;15.30;52.90;;;;;;5001200;28;20052;-77
2022/04/02 12:51:19;;;;;;;2.35;0.90;;;15.50;53.80;;;;;;4979209;28;20060;-77
2022/04/02 12:53:55;;;;;;;2.45;0.80;;;15.60;53.60;;;;;;5008146;28;20140;-77
2022/04/02 12:56:25;;;;;;;1.63;0.80;;;15.50;53.60;;;;;;5008323;28;20045;-77
2022/04/02 12:58:52;;;;;;;1.88;0.77;;;15.40;52.30;;;;;;4990140;28;20141;-77
2022/04/02 13:01:30;;;;;;;2.63;0.90;;;15.40;53.80;;;;;;4992117;28;20041;-79
2022/04/02 13:03:59;;;;;;;3.33;0.80;;;15.40;53.60;;;;;;4991246;28;20050;-76
2022/04/02 13:06:27;;;;;;;2.50;0.82;;;15.80;54.00;;;;;;5007923;28;20589;-77
2022/04/02 13:09:13;;;;;;;1.27;0.70;;;16.00;53.30;;;;;;4988809;28;20058;-77
2022/04/02 13:11:57;;;;;;;1.60;0.65;;;16.00;52.90;;;;;;5004587;28;20458;-82
2022/04/02 13:14:29;;;;;;;1.40;0.60;;;15.80;52.50;;;;;;5025234;28;20058;-78